createdAt,value
2023-03-15T00:01:08.161Z,2.39
2023-03-15T00:03:38.694Z,2.42
2023-03-15T00:06:05.361Z,2.39
2023-03-15T00:08:35.076Z,2.31
2023-03-15T00:11:02.108Z,2.31
2023-03-15T00:13:28.498Z,2.36
2023-03-15T00:15:58.938Z,2.44
2023-03-15T00:18:26.468Z,2.51
2023-03-15T00:20:52.846Z,2.51
2023-03-15T00:23:19.241Z,2.51
2023-03-15T00:25:47.516Z,2.70
2023-03-15T00:28:14.410Z,2.76
2023-03-15T00:30:40.911Z,2.88
2023-03-15T00:33:07.348Z,2.94
2023-03-15T00:35:38.023Z,2.99
2023-03-15T00:38:04.765Z,3.06
2023-03-15T00:40:31.556Z,3.12
2023-03-15T00:42:57.985Z,3.00
2023-03-15T00:45:24.552Z,3.03
2023-03-15T00:47:52.801Z,2.95
2023-03-15T00:50:19.588Z,2.93
2023-03-15T00:52:46.094Z,3.03
2023-03-15T00:55:15.009Z,2.77
2023-03-15T00:57:42.923Z,2.94
2023-03-15T01:00:14.232Z,2.86
2023-03-15T01:02:41.319Z,2.83
2023-03-15T01:05:08.894Z,2.85
2023-03-15T01:07:35.510Z,2.82
2023-03-15T01:10:03.486Z,2.80
2023-03-15T01:12:32.533Z,2.81
2023-03-15T01:15:00.022Z,2.77
2023-03-15T01:17:26.407Z,2.64
2023-03-15T01:19:53.096Z,2.56
2023-03-15T01:22:20.325Z,2.54
2023-03-15T01:24:46.825Z,2.55
2023-03-15T01:27:13.198Z,2.40
2023-03-15T01:29:39.633Z,2.37
2023-03-15T01:32:06.376Z,2.23
2023-03-15T01:34:32.896Z,2.34
2023-03-15T01:36:59.250Z,2.23
2023-03-15T01:39:25.614Z,2.25
2023-03-15T01:41:52.030Z,2.24
2023-03-15T01:44:19.824Z,2.33
2023-03-15T01:46:46.382Z,2.28
2023-03-15T01:49:39.106Z,2.31
2023-03-15T01:52:34.731Z,2.40
2023-03-15T01:55:07.538Z,2.32
2023-03-15T01:57:46.613Z,2.38
2023-03-15T02:00:16.438Z,2.28
2023-03-15T02:03:17.475Z,2.33
2023-03-15T02:05:47.932Z,2.37
2023-03-15T02:08:17.538Z,2.06
2023-03-15T02:10:47.922Z,2.15
2023-03-15T02:13:18.825Z,2.16
2023-03-15T02:15:46.575Z,2.14
2023-03-15T02:18:13.625Z,2.05
2023-03-15T02:20:48.851Z,2.06
2023-03-15T02:23:18.453Z,2.10
2023-03-15T02:26:03.916Z,2.04
2023-03-15T02:28:30.733Z,1.94
2023-03-15T02:30:57.844Z,1.90
2023-03-15T02:33:28.823Z,2.04
2023-03-15T02:35:56.222Z,2.14
2023-03-15T02:38:22.601Z,2.15
2023-03-15T02:40:51.801Z,2.14
2023-03-15T02:43:23.393Z,2.16
2023-03-15T02:45:50.531Z,2.20
2023-03-15T02:48:18.021Z,2.18
2023-03-15T02:50:44.424Z,2.27
2023-03-15T02:53:12.233Z,2.32
2023-03-15T02:55:39.000Z,2.27
2023-03-15T02:58:05.566Z,2.54
2023-03-15T03:00:31.937Z,2.45
2023-03-15T03:02:58.440Z,2.55
2023-03-15T03:05:24.794Z,2.64
2023-03-15T03:07:51.126Z,2.66
2023-03-15T03:10:20.340Z,2.81
2023-03-15T03:12:46.784Z,2.72
2023-03-15T03:15:13.265Z,2.72
2023-03-15T03:17:39.641Z,2.51
2023-03-15T03:20:09.737Z,2.54
2023-03-15T03:22:37.202Z,2.32
2023-03-15T03:25:04.437Z,2.27
2023-03-15T03:27:30.780Z,2.04
2023-03-15T03:29:57.101Z,2.08
2023-03-15T03:32:23.534Z,1.86
2023-03-15T03:34:49.912Z,1.83
2023-03-15T03:37:20.905Z,1.80
2023-03-15T03:39:47.570Z,1.78
2023-03-15T03:42:14.510Z,1.76
2023-03-15T03:44:41.453Z,1.66
2023-03-15T03:47:08.332Z,1.55
2023-03-15T03:49:34.742Z,1.43
2023-03-15T03:52:01.516Z,1.41
2023-03-15T03:54:28.500Z,1.39
2023-03-15T03:56:54.834Z,1.23
2023-03-15T03:59:21.209Z,1.27
2023-03-15T04:01:48.271Z,1.28
2023-03-15T04:04:14.757Z,1.24
2023-03-15T04:06:45.603Z,1.15
2023-03-15T04:09:13.586Z,1.16
2023-03-15T04:11:42.550Z,1.22
2023-03-15T04:14:12.846Z,1.16
2023-03-15T04:16:39.324Z,1.10
2023-03-15T04:19:06.849Z,1.14
2023-03-15T04:21:34.157Z,1.12
2023-03-15T04:24:01.452Z,0.99
2023-03-15T04:26:28.265Z,1.04
2023-03-15T04:28:58.656Z,0.94
2023-03-15T04:31:28.795Z,1.00
2023-03-15T04:33:55.605Z,0.99
2023-03-15T04:36:23.338Z,1.03
2023-03-15T04:38:50.492Z,1.02
2023-03-15T04:41:17.855Z,0.97
2023-03-15T04:43:45.175Z,1.14
2023-03-15T04:46:12.023Z,1.07
2023-03-15T04:48:38.353Z,1.09
2023-03-15T04:51:04.812Z,1.17
2023-03-15T04:53:31.247Z,1.22
2023-03-15T04:55:57.660Z,1.12
2023-03-15T04:58:24.076Z,0.92
2023-03-15T05:00:50.474Z,0.98
2023-03-15T05:03:16.860Z,0.82
2023-03-15T05:05:44.908Z,0.68
2023-03-15T05:08:11.650Z,0.61
2023-03-15T05:10:38.009Z,0.56
2023-03-15T05:13:04.373Z,0.53
2023-03-15T05:15:30.757Z,0.46
2023-03-15T05:17:57.096Z,0.65
2023-03-15T05:20:23.516Z,0.39
2023-03-15T05:22:49.840Z,0.30
2023-03-15T05:25:16.335Z,0.36
2023-03-15T05:27:42.733Z,0.52
2023-03-15T05:30:09.781Z,0.34
2023-03-15T05:32:39.393Z,0.45
2023-03-15T05:35:07.189Z,0.49
2023-03-15T05:37:33.646Z,0.39
2023-03-15T05:40:01.326Z,0.35
2023-03-15T05:42:27.750Z,0.38
2023-03-15T05:44:54.739Z,0.33
2023-03-15T05:47:21.392Z,0.36
2023-03-15T05:49:48.029Z,0.53
2023-03-15T05:52:15.362Z,0.60
2023-03-15T05:54:41.986Z,0.57
2023-03-15T05:57:08.334Z,0.58
2023-03-15T05:59:34.751Z,0.60
2023-03-15T06:02:01.145Z,0.62
2023-03-15T06:04:27.514Z,0.59
2023-03-15T06:06:53.925Z,0.68
2023-03-15T06:09:20.375Z,0.73
2023-03-15T06:11:46.708Z,0.74
2023-03-15T06:14:13.089Z,0.72
2023-03-15T06:16:39.556Z,1.05
2023-03-15T06:19:05.959Z,1.13
2023-03-15T06:21:32.339Z,1.07
2023-03-15T06:23:58.669Z,1.26
2023-03-15T06:26:25.412Z,1.51
2023-03-15T06:28:51.856Z,1.51
2023-03-15T06:31:18.278Z,1.51
2023-03-15T06:33:44.739Z,1.61
2023-03-15T06:36:11.373Z,1.70
2023-03-15T06:38:37.720Z,1.93
2023-03-15T06:41:05.061Z,2.08
2023-03-15T06:43:31.888Z,2.15
2023-03-15T06:45:59.873Z,2.04
2023-03-15T06:48:27.376Z,2.13
2023-03-15T06:50:53.760Z,2.08
2023-03-15T06:53:20.165Z,2.00
2023-03-15T06:55:46.993Z,1.96
2023-03-15T06:58:13.995Z,1.78
2023-03-15T07:00:41.517Z,1.80
2023-03-15T07:03:07.913Z,1.81
2023-03-15T07:05:34.278Z,1.82
2023-03-15T07:08:00.664Z,1.83
2023-03-15T07:10:27.037Z,1.77
2023-03-15T07:12:53.405Z,1.83
2023-03-15T07:15:19.765Z,1.83
2023-03-15T07:17:46.104Z,2.12
2023-03-15T07:20:12.734Z,2.29
2023-03-15T07:22:39.146Z,2.99
2023-03-15T07:25:07.369Z,3.73
2023-03-15T07:27:34.127Z,4.60
2023-03-15T07:30:01.121Z,4.89
2023-03-15T07:32:27.603Z,5.96
2023-03-15T07:34:58.105Z,6.21
2023-03-15T07:37:24.448Z,6.06
2023-03-15T07:39:50.830Z,6.11
2023-03-15T07:42:17.185Z,6.87
2023-03-15T07:44:43.505Z,7.13
2023-03-15T07:47:10.029Z,7.09
2023-03-15T07:49:36.365Z,6.99
2023-03-15T07:52:03.556Z,8.17
2023-03-15T07:54:31.648Z,8.22
2023-03-15T07:56:58.026Z,7.60
2023-03-15T07:59:24.404Z,8.11
2023-03-15T08:01:51.361Z,7.74
2023-03-15T08:04:17.717Z,8.19
2023-03-15T08:06:44.069Z,8.94
2023-03-15T08:09:12.025Z,8.52
2023-03-15T08:11:38.409Z,8.57
2023-03-15T08:14:04.760Z,8.43
2023-03-15T08:16:31.350Z,9.02
2023-03-15T08:18:57.771Z,8.95
2023-03-15T08:21:24.096Z,8.79
2023-03-15T08:23:50.503Z,9.15
2023-03-15T08:26:16.870Z,9.25
2023-03-15T08:28:43.246Z,8.85
2023-03-15T08:31:10.069Z,8.83
2023-03-15T08:33:36.463Z,9.86
2023-03-15T08:36:02.952Z,9.86
2023-03-15T08:38:29.351Z,9.93
2023-03-15T08:40:57.045Z,9.24
2023-03-15T08:43:23.422Z,9.62
2023-03-15T08:46:00.699Z,9.73
2023-03-15T08:48:28.265Z,9.08
2023-03-15T08:50:54.630Z,9.48
2023-03-15T08:53:21.017Z,9.85
2023-03-15T08:55:48.962Z,9.77
2023-03-15T08:58:15.312Z,10.06
2023-03-15T09:00:41.671Z,10.13
2023-03-15T09:03:08.640Z,9.64
2023-03-15T09:05:35.843Z,9.43
2023-03-15T09:08:02.202Z,9.53
2023-03-15T09:10:28.580Z,9.07
2023-03-15T09:12:55.473Z,9.62
2023-03-15T09:15:21.924Z,9.77
2023-03-15T09:17:50.770Z,10.07
2023-03-15T09:20:19.056Z,9.49
2023-03-15T09:22:51.968Z,10.27
2023-03-15T09:25:18.722Z,9.97
2023-03-15T09:27:45.150Z,9.67
2023-03-15T09:30:12.066Z,10.18
2023-03-15T09:32:38.410Z,10.10
2023-03-15T09:35:07.525Z,9.69
2023-03-15T09:37:34.488Z,10.18
2023-03-15T09:40:01.810Z,10.36
2023-03-15T09:42:52.998Z,10.43
2023-03-15T09:45:34.273Z,11.08
2023-03-15T09:48:08.031Z,10.14
2023-03-15T09:50:44.207Z,10.94
2023-03-15T09:53:58.262Z,10.43
2023-03-15T09:56:28.420Z,11.27
2023-03-15T09:58:59.697Z,10.58
2023-03-15T10:01:32.227Z,10.70
2023-03-15T10:04:07.841Z,11.28
2023-03-15T10:06:36.560Z,10.90
2023-03-15T10:09:12.497Z,11.25
2023-03-15T10:12:04.581Z,11.48
2023-03-15T10:14:48.380Z,10.53
2023-03-15T10:17:24.705Z,10.40
2023-03-15T10:19:52.827Z,10.46
2023-03-15T10:22:19.096Z,10.42
2023-03-15T10:25:06.581Z,11.27
2023-03-15T10:27:39.135Z,10.98
2023-03-15T10:30:23.624Z,10.86
2023-03-15T10:33:01.816Z,10.90
2023-03-15T10:35:28.649Z,10.89
2023-03-15T10:37:55.492Z,10.70
2023-03-15T10:40:43.606Z,10.90
2023-03-15T10:43:36.787Z,11.18
2023-03-15T10:46:12.434Z,10.99
2023-03-15T10:48:51.429Z,10.49
2023-03-15T10:51:26.194Z,10.99
2023-03-15T10:54:10.809Z,11.12
2023-03-15T10:57:01.833Z,11.04
2023-03-15T10:59:31.090Z,9.97
2023-03-15T11:02:12.347Z,10.49
2023-03-15T11:04:43.316Z,10.78
2023-03-15T11:07:10.568Z,9.99
2023-03-15T11:09:45.653Z,10.75
2023-03-15T11:12:24.141Z,9.99
2023-03-15T11:14:56.556Z,11.18
2023-03-15T11:17:26.978Z,11.17
2023-03-15T11:19:56.943Z,11.44
2023-03-15T11:22:24.034Z,10.69
2023-03-15T11:24:51.663Z,11.55
2023-03-15T11:27:21.264Z,11.80
2023-03-15T11:29:59.741Z,10.88
2023-03-15T11:33:05.444Z,11.90
2023-03-15T11:35:48.594Z,12.14
2023-03-15T11:38:24.817Z,11.77
2023-03-15T11:40:56.637Z,11.66
2023-03-15T11:43:28.232Z,11.66
2023-03-15T11:46:05.218Z,11.88
2023-03-15T11:48:40.961Z,12.68
2023-03-15T11:51:10.405Z,12.73
2023-03-15T11:53:41.233Z,11.97
2023-03-15T11:56:28.882Z,12.45
2023-03-15T11:59:04.696Z,12.39
2023-03-15T12:01:31.170Z,12.37
2023-03-15T12:04:35.858Z,11.24
2023-03-15T12:07:05.736Z,12.58
2023-03-15T12:09:32.055Z,11.56
2023-03-15T12:12:00.662Z,11.65
2023-03-15T12:14:30.602Z,11.23
2023-03-15T12:17:29.005Z,11.65
2023-03-15T12:20:09.329Z,12.01
2023-03-15T12:22:37.461Z,11.74
2023-03-15T12:25:19.570Z,11.17
2023-03-15T12:28:10.677Z,11.65
2023-03-15T12:30:43.072Z,12.13
2023-03-15T12:33:19.253Z,13.05
2023-03-15T12:35:46.417Z,12.61
2023-03-15T12:38:24.071Z,13.09
2023-03-15T12:40:55.823Z,13.17
2023-03-15T12:43:44.901Z,12.67
2023-03-15T12:46:37.014Z,13.63
2023-03-15T12:49:12.400Z,13.18
2023-03-15T12:52:04.232Z,13.35
2023-03-15T12:54:51.479Z,13.01
2023-03-15T12:57:23.563Z,12.77
2023-03-15T13:00:00.312Z,12.41
2023-03-15T13:02:43.318Z,12.49
2023-03-15T13:05:09.935Z,12.52
2023-03-15T13:08:18.950Z,12.36
2023-03-15T13:11:03.894Z,12.42
2023-03-15T13:13:46.069Z,13.05
2023-03-15T13:16:26.218Z,11.97
2023-03-15T13:19:05.248Z,10.67
2023-03-15T13:21:36.075Z,10.61
2023-03-15T13:24:11.036Z,11.45
2023-03-15T13:27:05.306Z,12.05
2023-03-15T13:29:33.042Z,12.04
2023-03-15T13:32:02.218Z,11.69
2023-03-15T13:34:32.130Z,11.93
2023-03-15T13:37:00.067Z,12.71
2023-03-15T13:39:34.399Z,12.53
2023-03-15T13:42:04.725Z,12.34
2023-03-15T13:44:32.495Z,11.65
2023-03-15T13:47:00.201Z,12.52
2023-03-15T13:49:32.362Z,11.18
2023-03-15T13:51:59.117Z,11.09
2023-03-15T13:54:30.200Z,11.48
2023-03-15T13:57:01.368Z,11.99
2023-03-15T13:59:32.770Z,11.81
2023-03-15T14:02:02.398Z,11.68
2023-03-15T14:04:31.550Z,11.95
2023-03-15T14:07:38.540Z,12.29
2023-03-15T14:10:26.474Z,11.64
2023-03-15T14:12:54.049Z,11.45
2023-03-15T14:15:23.567Z,11.12
2023-03-15T14:18:02.396Z,10.91
2023-03-15T14:20:35.255Z,11.19
2023-03-15T14:23:03.442Z,11.52
2023-03-15T14:25:34.792Z,11.82
2023-03-15T14:28:02.554Z,11.70
2023-03-15T14:30:30.596Z,11.39
2023-03-15T14:32:59.978Z,11.72
2023-03-15T14:35:37.508Z,11.49
2023-03-15T14:38:24.019Z,11.33
2023-03-15T14:40:52.745Z,10.97
2023-03-15T14:43:19.702Z,11.08
2023-03-15T14:45:48.334Z,11.24
2023-03-15T14:48:26.418Z,11.08
2023-03-15T14:50:53.242Z,11.06
2023-03-15T14:53:22.364Z,11.10
2023-03-15T14:55:48.942Z,11.01
2023-03-15T14:58:22.417Z,10.45
2023-03-15T15:00:51.408Z,11.19
2023-03-15T15:03:31.859Z,10.69
2023-03-15T15:06:00.282Z,10.72
2023-03-15T15:08:26.816Z,10.76
2023-03-15T15:10:56.256Z,10.70
2023-03-15T15:13:28.180Z,10.39
2023-03-15T15:15:56.735Z,10.76
2023-03-15T15:18:31.694Z,10.22
2023-03-15T15:21:04.249Z,10.35
2023-03-15T15:23:41.871Z,10.69
2023-03-15T15:26:26.154Z,10.53
2023-03-15T15:28:53.182Z,10.68
2023-03-15T15:31:22.755Z,11.03
2023-03-15T15:33:50.394Z,11.07
2023-03-15T15:36:23.551Z,10.88
2023-03-15T15:38:50.089Z,10.61
2023-03-15T15:41:23.630Z,10.64
2023-03-15T15:43:50.373Z,10.69
2023-03-15T15:46:16.961Z,10.60
2023-03-15T15:48:44.264Z,10.61
2023-03-15T15:51:21.229Z,10.69
2023-03-15T15:53:48.044Z,10.73
2023-03-15T15:56:14.876Z,10.38
2023-03-15T15:58:42.423Z,10.13
2023-03-15T16:01:16.175Z,10.27
2023-03-15T16:03:42.838Z,10.04
2023-03-15T16:06:18.414Z,10.03
2023-03-15T16:08:46.225Z,10.21
2023-03-15T16:11:14.862Z,10.23
2023-03-15T16:13:42.376Z,10.12
2023-03-15T16:16:14.500Z,9.88
2023-03-15T16:18:42.557Z,10.00
2023-03-15T16:21:44.939Z,9.52
2023-03-15T16:24:17.581Z,9.50
2023-03-15T16:26:45.407Z,9.51
2023-03-15T16:29:15.121Z,9.52
2023-03-15T16:31:41.951Z,9.45
2023-03-15T16:34:13.229Z,9.35
2023-03-15T16:36:47.727Z,9.21
2023-03-15T16:39:15.832Z,8.83
2023-03-15T16:41:42.310Z,8.76
2023-03-15T16:44:12.274Z,8.64
2023-03-15T16:46:38.878Z,8.56
2023-03-15T16:49:05.304Z,8.50
2023-03-15T16:51:32.493Z,8.18
2023-03-15T16:54:12.673Z,8.01
2023-03-15T16:56:42.849Z,7.66
2023-03-15T16:59:16.347Z,7.64
2023-03-15T17:01:44.495Z,7.43
2023-03-15T17:04:12.275Z,7.20
2023-03-15T17:06:38.981Z,7.43
2023-03-15T17:09:11.060Z,7.29
2023-03-15T17:11:39.632Z,7.20
2023-03-15T17:14:10.833Z,7.03
2023-03-15T17:16:37.231Z,6.85
2023-03-15T17:19:04.265Z,6.80
2023-03-15T17:21:34.201Z,6.78
2023-03-15T17:24:00.613Z,6.89
2023-03-15T17:26:31.051Z,6.58
2023-03-15T17:28:57.803Z,6.56
2023-03-15T17:31:25.621Z,6.48
2023-03-15T17:33:52.356Z,6.46
2023-03-15T17:36:24.465Z,6.34
2023-03-15T17:38:51.796Z,6.41
2023-03-15T17:41:21.986Z,6.43
2023-03-15T17:43:49.855Z,6.26
2023-03-15T17:46:21.765Z,6.15
2023-03-15T17:48:49.124Z,6.17
2023-03-15T17:51:22.117Z,6.03
2023-03-15T17:53:49.283Z,5.89
2023-03-15T17:56:15.953Z,5.86
2023-03-15T17:58:44.955Z,5.82
2023-03-15T18:01:16.079Z,5.75
2023-03-15T18:03:45.870Z,5.54
2023-03-15T18:06:13.784Z,5.44
2023-03-15T18:08:40.336Z,5.34
2023-03-15T18:11:42.019Z,5.31
2023-03-15T18:14:13.925Z,5.26
2023-03-15T18:16:40.924Z,5.00
2023-03-15T18:19:07.374Z,5.05
2023-03-15T18:21:34.164Z,4.99
2023-03-15T18:24:00.719Z,4.92
2023-03-15T18:26:27.122Z,4.94
2023-03-15T18:28:53.515Z,4.94
2023-03-15T18:31:23.026Z,4.87
2023-03-15T18:33:50.744Z,4.94
2023-03-15T18:36:17.884Z,4.96
2023-03-15T18:38:44.647Z,5.02
2023-03-15T18:41:20.712Z,5.05
2023-03-15T18:43:49.865Z,4.86
2023-03-15T18:46:22.017Z,4.91
2023-03-15T18:48:49.815Z,4.94
2023-03-15T18:51:21.444Z,4.66
2023-03-15T18:53:47.825Z,4.72
2023-03-15T18:56:19.351Z,4.65
2023-03-15T18:58:49.733Z,4.78
2023-03-15T19:01:17.044Z,4.70
2023-03-15T19:03:43.455Z,4.55
2023-03-15T19:06:11.965Z,4.44
2023-03-15T19:08:38.771Z,4.37
2023-03-15T19:11:07.871Z,4.38
2023-03-15T19:13:34.812Z,4.16
2023-03-15T19:16:01.757Z,4.41
2023-03-15T19:18:28.489Z,4.29
2023-03-15T19:20:54.899Z,4.35
2023-03-15T19:23:21.627Z,4.59
2023-03-15T19:25:48.284Z,4.61
2023-03-15T19:28:15.356Z,4.53
2023-03-15T19:30:42.222Z,4.37
2023-03-15T19:33:09.064Z,4.32
2023-03-15T19:35:35.591Z,4.30
2023-03-15T19:38:02.564Z,4.14
2023-03-15T19:40:28.946Z,4.29
2023-03-15T19:42:55.325Z,4.14
2023-03-15T19:45:21.854Z,4.13
2023-03-15T19:47:48.252Z,3.98
2023-03-15T19:50:15.172Z,4.18
2023-03-15T19:52:46.126Z,4.11
2023-03-15T19:55:18.669Z,4.17
2023-03-15T19:57:45.500Z,3.98
2023-03-15T20:00:16.038Z,4.09
2023-03-15T20:02:43.633Z,3.95
2023-03-15T20:05:11.701Z,3.91
2023-03-15T20:07:38.235Z,4.02
2023-03-15T20:10:06.050Z,4.06
2023-03-15T20:12:32.641Z,3.95
2023-03-15T20:14:59.100Z,3.99
2023-03-15T20:17:26.920Z,3.88
2023-03-15T20:19:53.358Z,3.96
2023-03-15T20:22:19.856Z,4.16
2023-03-15T20:24:46.586Z,4.07
2023-03-15T20:27:13.259Z,3.99
2023-03-15T20:29:39.659Z,4.12
2023-03-15T20:32:06.232Z,3.83
2023-03-15T20:34:32.706Z,3.71
2023-03-15T20:36:59.749Z,3.61
2023-03-15T20:39:26.151Z,3.89
2023-03-15T20:41:52.634Z,3.83
2023-03-15T20:44:19.748Z,3.59
2023-03-15T20:46:46.212Z,3.74
2023-03-15T20:49:14.145Z,3.64
2023-03-15T20:51:40.613Z,3.77
2023-03-15T20:54:07.036Z,3.74
2023-03-15T20:56:34.220Z,3.82
2023-03-15T20:59:01.121Z,3.90
2023-03-15T21:01:27.530Z,3.86
2023-03-15T21:03:56.017Z,3.88
2023-03-15T21:06:23.109Z,3.58
2023-03-15T21:08:50.112Z,3.81
2023-03-15T21:11:16.629Z,3.91
2023-03-15T21:13:43.139Z,4.01
2023-03-15T21:16:12.330Z,3.81
2023-03-15T21:18:39.018Z,3.84
2023-03-15T21:21:07.683Z,3.61
2023-03-15T21:23:34.865Z,3.64
2023-03-15T21:26:04.128Z,3.50
2023-03-15T21:28:31.542Z,3.53
2023-03-15T21:30:58.654Z,3.39
2023-03-15T21:33:27.347Z,3.52
2023-03-15T21:35:54.259Z,3.42
2023-03-15T21:38:21.100Z,3.24
2023-03-15T21:40:58.093Z,3.30
2023-03-15T21:43:28.980Z,3.22
2023-03-15T21:45:59.504Z,3.27
2023-03-15T21:48:26.012Z,3.03
2023-03-15T21:50:53.737Z,2.84
2023-03-15T21:53:21.322Z,3.00
2023-03-15T21:55:47.731Z,2.94
2023-03-15T21:58:14.114Z,2.95
2023-03-15T22:00:40.614Z,2.81
2023-03-15T22:03:07.020Z,2.90
2023-03-15T22:05:34.405Z,2.85
2023-03-15T22:08:00.958Z,2.78
2023-03-15T22:10:27.614Z,2.89
2023-03-15T22:12:54.225Z,2.92
2023-03-15T22:15:24.166Z,2.92
2023-03-15T22:17:50.972Z,2.82
2023-03-15T22:20:17.646Z,2.75
2023-03-15T22:22:45.993Z,2.83
2023-03-15T22:25:13.296Z,2.67
2023-03-15T22:27:40.182Z,2.73
2023-03-15T22:30:08.454Z,2.72
2023-03-15T22:32:34.839Z,2.69
2023-03-15T22:35:01.304Z,2.69
2023-03-15T22:37:27.706Z,2.72
2023-03-15T22:39:54.039Z,2.73
2023-03-15T22:42:20.628Z,2.83
2023-03-15T22:44:46.993Z,2.84
2023-03-15T22:47:13.357Z,2.91
2023-03-15T22:49:39.770Z,2.88
2023-03-15T22:52:06.519Z,2.85
2023-03-15T22:54:32.908Z,3.00
2023-03-15T22:56:59.282Z,3.04
2023-03-15T22:59:28.908Z,3.09
2023-03-15T23:01:56.555Z,3.21
2023-03-15T23:04:23.804Z,3.12
2023-03-15T23:06:50.461Z,3.17
2023-03-15T23:09:16.848Z,2.88
2023-03-15T23:11:43.261Z,3.06
2023-03-15T23:14:09.604Z,3.29
2023-03-15T23:16:36.003Z,3.28
2023-03-15T23:19:03.158Z,3.23
2023-03-15T23:21:29.710Z,3.19
2023-03-15T23:23:56.119Z,3.25
2023-03-15T23:26:25.305Z,3.13
2023-03-15T23:28:53.052Z,3.30
2023-03-15T23:31:19.747Z,3.29
2023-03-15T23:33:49.327Z,3.05
2023-03-15T23:36:15.738Z,3.38
2023-03-15T23:38:42.118Z,3.10
2023-03-15T23:41:09.051Z,3.37
2023-03-15T23:43:35.537Z,3.29
2023-03-15T23:46:04.731Z,3.49
2023-03-15T23:48:35.641Z,3.31
2023-03-15T23:51:05.535Z,3.40
2023-03-15T23:53:32.411Z,3.47
2023-03-15T23:55:58.853Z,3.45
2023-03-15T23:58:25.331Z,3.47
